Time;durP1;ratioP1;P1;durP2;ratioP2;P2;SDS_P1;SDS_P2;PMS_P1;PMS_P2;Temp;Humidity;BMP_temperature;BMP_pressure;BME280_temperature;BME280_humidity;BME280_pressure;Samples;Min_cycle;Max_cycle;Signal;HPM_P1;HPM_P2
2022/11/30 00:01:25;;;;;;;84.60;28.77;;;;;;;6.94;100.00;102203.84;5032278;28;20278;-64
2022/11/30 00:03:54;;;;;;;89.43;29.80;;;;;;;6.94;100.00;102206.44;5022771;28;20165;-64
2022/11/30 00:06:22;;;;;;;91.63;31.20;;;;;;;6.95;100.00;102205.63;5026093;28;20052;-64
2022/11/30 00:08:48;;;;;;;80.25;28.83;;;;;;;6.97;100.00;102209.22;5022568;28;20040;-64
2022/11/30 00:11:16;;;;;;;86.05;28.40;;;;;;;6.96;100.00;102205.72;5026884;28;20041;-64
2022/11/30 00:13:42;;;;;;;75.57;27.98;;;;;;;6.99;100.00;102212.78;5026632;28;20018;-64
2022/11/30 00:16:07;;;;;;;75.03;27.17;;;;;;;7.00;100.00;102211.09;5041343;28;20055;-64
2022/11/30 00:18:33;;;;;;;74.00;28.35;;;;;;;7.00;100.00;102211.09;5032494;28;20220;-64
2022/11/30 00:21:07;;;;;;;72.07;25.85;;;;;;;7.00;100.00;102199.03;5035650;28;20061;-64
2022/11/30 00:23:38;;;;;;;69.53;24.58;;;;;;;7.01;100.00;102210.28;5034477;28;20041;-64
2022/11/30 00:26:05;;;;;;;66.22;24.58;;;;;;;7.01;100.00;102208.59;5031671;28;20258;-64
2022/11/30 00:28:32;;;;;;;71.68;25.85;;;;;;;7.01;100.00;102208.59;5039282;28;20037;-64
2022/11/30 00:30:59;;;;;;;69.30;25.40;;;;;;;7.02;100.00;102207.78;5041889;28;20319;-64
2022/11/30 00:33:24;;;;;;;65.70;24.30;;;;;;;7.02;100.00;102207.78;5028433;28;20026;-64
2022/11/30 00:35:57;;;;;;;61.85;25.13;;;;;;;7.03;100.00;102214.75;5037747;28;20469;-64
2022/11/30 00:38:22;;;;;;;66.40;24.10;;;;;;;7.03;100.00;102214.75;5039107;28;20037;-64
2022/11/30 00:40:48;;;;;;;68.95;24.52;;;;;;;7.02;100.00;102212.97;5039796;28;20030;-64
2022/11/30 00:43:13;;;;;;;69.25;25.05;;;;;;;7.02;100.00;102212.09;5038991;28;20041;-64
2022/11/30 00:45:40;;;;;;;65.93;24.40;;;;;;;7.02;100.00;102219.84;5032609;28;20037;-64
2022/11/30 00:48:05;;;;;;;65.68;24.27;;;;;;;7.02;100.00;102220.75;5039830;28;20032;-69
2022/11/30 00:50:31;;;;;;;65.85;24.08;;;;;;;7.02;100.00;102212.97;5041049;28;20101;-69
2022/11/30 00:52:56;;;;;;;56.58;23.02;;;;;;;7.04;100.00;102226.94;5023151;28;20087;-69
2022/11/30 00:55:21;;;;;;;64.80;24.83;;;;;;;7.04;100.00;102221.75;5041197;28;20025;-69
2022/11/30 00:57:47;;;;;;;70.63;24.45;;;;;;;7.04;100.00;102221.75;5039717;28;20200;-69
2022/11/30 01:00:12;;;;;;;66.32;24.35;;;;;;;7.05;100.00;102220.03;5037836;28;20198;-69
2022/11/30 01:02:37;;;;;;;63.47;23.67;;;;;;;7.05;100.00;102220.91;5011171;28;20173;-69
2022/11/30 01:05:03;;;;;;;60.92;23.73;;;;;;;7.05;100.00;102217.44;5037585;28;20148;-69
2022/11/30 01:07:28;;;;;;;63.47;25.10;;;;;;;7.06;100.00;102224.44;5042247;28;20017;-69
2022/11/30 01:09:53;;;;;;;58.10;22.67;;;;;;;7.06;100.00;102230.50;5038425;28;20261;-69
2022/11/30 01:12:18;;;;;;;56.17;23.85;;;;;;;7.06;100.00;102230.50;5032040;28;20096;-69
2022/11/30 01:14:44;;;;;;;58.67;24.10;;;;;;;7.07;100.00;102224.53;5034463;28;20032;-69
2022/11/30 01:17:10;;;;;;;60.80;23.38;;;;;;;7.08;100.00;102234.09;5038679;28;20034;-69
2022/11/30 01:19:35;;;;;;;55.85;22.40;;;;;;;7.08;100.00;102228.91;5034695;28;20017;-69
2022/11/30 01:22:00;;;;;;;57.10;23.30;;;;;;;7.08;100.00;102221.13;5040734;28;20033;-69
2022/11/30 01:24:25;;;;;;;55.95;23.10;;;;;;;7.08;100.00;102226.31;5033096;28;20274;-69
2022/11/30 01:26:51;;;;;;;65.05;23.20;;;;;;;7.07;100.00;102221.03;5037770;28;20329;-69
2022/11/30 01:29:16;;;;;;;59.83;23.40;;;;;;;7.05;100.00;102223.50;5036296;28;20048;-69
2022/11/30 01:31:41;;;;;;;52.67;21.73;;;;;;;7.04;100.00;102232.13;5037877;28;20033;-69
2022/11/30 01:34:06;;;;;;;59.08;22.02;;;;;;;7.02;100.00;102225.91;5032787;28;20045;-69
2022/11/30 01:36:32;;;;;;;51.25;21.23;;;;;;;7.03;100.00;102227.72;5038909;28;20192;-69
2022/11/30 01:38:57;;;;;;;53.13;21.83;;;;;;;7.05;100.00;102233.00;5030355;28;20053;-69
2022/11/30 01:41:29;;;;;;;53.78;20.60;;;;;;;7.05;100.00;102231.28;5040878;28;20022;-69
2022/11/30 01:44:04;;;;;;;52.70;20.70;;;;;;;7.05;100.00;102223.50;5031938;28;20037;-69
2022/11/30 01:46:43;;;;;;;52.78;20.73;;;;;;;7.06;100.00;102230.50;5035206;28;20247;-64
2022/11/30 01:49:09;;;;;;;49.00;21.23;;;;;;;7.07;100.00;102231.41;5029282;28;20331;-65
2022/11/30 01:51:47;;;;;;;50.63;21.23;;;;;;;7.05;100.00;102227.81;5033547;28;20025;-64
2022/11/30 01:54:16;;;;;;;53.25;19.95;;;;;;;7.04;100.00;102236.38;5025351;28;20478;-64
2022/11/30 01:56:49;;;;;;;49.58;19.73;;;;;;;7.02;100.00;102243.19;5038479;28;20017;-64
2022/11/30 01:59:16;;;;;;;47.83;20.23;;;;;;;7.01;100.00;102239.72;5018721;28;20184;-64
2022/11/30 02:01:41;;;;;;;50.05;20.10;;;;;;;7.01;100.00;102250.06;5039141;28;20030;-64
2022/11/30 02:04:14;;;;;;;46.78;19.33;;;;;;;7.01;100.00;102244.88;5014508;28;20030;-64
2022/11/30 02:06:39;;;;;;;49.90;20.13;;;;;;;7.00;100.00;102249.97;5037914;28;20282;-64
2022/11/30 02:09:05;;;;;;;47.22;20.15;;;;;;;7.00;100.00;102248.28;5041278;28;20233;-64
2022/11/30 02:11:30;;;;;;;50.08;19.25;;;;;;;7.01;100.00;102243.97;5026090;28;20045;-64
2022/11/30 02:14:09;;;;;;;47.50;20.23;;;;;;;7.01;100.00;102251.75;5037276;28;20065;-64
2022/11/30 02:16:53;;;;;;;;;;;;;;;7.10;100.00;102250.63;5009152;28;20243;-69
2022/11/30 02:19:38;;;;;;;48.72;18.73;;;;;;;7.06;100.00;102245.16;5033931;28;19963;-69
2022/11/30 02:22:13;;;;;;;39.90;17.42;;;;;;;7.05;100.00;102244.25;5026206;28;20125;-69
2022/11/30 02:24:53;;;;;;;43.65;18.60;;;;;;;7.05;100.00;102243.38;5036192;28;20080;-69
2022/11/30 02:27:36;;;;;;;44.42;18.70;;;;;;;7.04;100.00;102247.66;5035645;28;20033;-69
2022/11/30 02:30:06;;;;;;;46.88;19.38;;;;;;;7.05;100.00;102258.91;5024596;28;20129;-69
2022/11/30 02:32:38;;;;;;;45.67;18.50;;;;;;;7.05;100.00;102248.53;5038252;28;20029;-69
2022/11/30 02:35:06;;;;;;;48.40;19.17;;;;;;;7.07;100.00;102252.16;5036072;28;20038;-69
2022/11/30 02:37:33;;;;;;;41.20;18.55;;;;;;;7.08;100.00;102254.81;5035767;28;20268;-69
2022/11/30 02:39:59;;;;;;;39.90;18.08;;;;;;;7.09;100.00;102254.00;5037875;28;20025;-69
2022/11/30 02:42:24;;;;;;;41.55;18.50;;;;;;;7.08;100.00;102247.06;5038152;28;20037;-69
2022/11/30 02:44:52;;;;;;;40.28;19.27;;;;;;;7.09;100.00;102256.59;5037204;28;20084;-69
2022/11/30 02:47:26;;;;;;;40.45;18.08;;;;;;;7.09;100.00;102256.59;5032620;28;20264;-64
2022/11/30 02:50:13;;;;;;;44.25;18.67;;;;;;;7.12;100.00;102258.47;5034923;28;20268;-65
2022/11/30 02:52:39;;;;;;;40.70;17.25;;;;;;;7.11;100.00;102254.09;5034169;28;20018;-64
2022/11/30 02:55:07;;;;;;;39.45;18.20;;;;;;;7.11;100.00;102260.19;5040121;28;20057;-65
2022/11/30 02:57:33;;;;;;;39.00;17.67;;;;;;;7.12;100.00;102256.78;5029241;28;20264;-64
2022/11/30 03:00:00;;;;;;;38.72;17.50;;;;;;;7.12;100.00;102261.97;5043013;28;20586;-64
2022/11/30 03:02:26;;;;;;;37.33;17.25;;;;;;;7.10;100.00;102263.56;5038516;28;20043;-64
2022/11/30 03:04:51;;;;;;;39.45;17.42;;;;;;;7.10;100.00;102260.97;5040655;28;20048;-64
2022/11/30 03:07:16;;;;;;;39.05;17.63;;;;;;;7.09;100.00;102266.06;5029901;28;20092;-64
2022/11/30 03:09:42;;;;;;;35.33;17.05;;;;;;;7.09;100.00;102263.50;5041227;28;20057;-64
2022/11/30 03:12:07;;;;;;;38.15;17.27;;;;;;;7.08;100.00;102264.28;5039549;28;20096;-64
2022/11/30 03:14:32;;;;;;;35.47;17.00;;;;;;;7.08;100.00;102256.50;5031328;28;20025;-64
2022/11/30 03:16:57;;;;;;;36.78;17.15;;;;;;;7.07;100.00;102268.56;5035483;28;20267;-69
2022/11/30 03:19:23;;;;;;;39.92;17.90;;;;;;;7.05;100.00;102264.97;5033839;28;20046;-69
2022/11/30 03:21:48;;;;;;;37.53;17.35;;;;;;;7.04;100.00;102255.44;5034377;28;20372;-69
2022/11/30 03:24:13;;;;;;;33.60;16.20;;;;;;;7.05;100.00;102264.09;5040857;28;20095;-69
2022/11/30 03:26:39;;;;;;;35.90;17.08;;;;;;;7.06;100.00;102259.00;5031137;28;20097;-69
2022/11/30 03:29:04;;;;;;;36.92;16.65;;;;;;;7.06;100.00;102260.72;5038907;28;20063;-69
2022/11/30 03:31:30;;;;;;;34.40;16.60;;;;;;;7.05;100.00;102264.97;5042832;28;20044;-69
2022/11/30 03:33:55;;;;;;;39.70;17.38;;;;;;;7.07;100.00;102263.41;5035531;28;20033;-69
2022/11/30 03:36:20;;;;;;;36.53;17.23;;;;;;;7.08;100.00;102260.00;5039274;28;20036;-69
2022/11/30 03:38:46;;;;;;;35.75;16.80;;;;;;;7.07;100.00;102268.56;5028741;28;20057;-69
2022/11/30 03:41:15;;;;;;;32.53;16.17;;;;;;;7.08;100.00;102256.50;5031225;28;20330;-69
2022/11/30 03:43:41;;;;;;;36.37;17.57;;;;;;;7.09;100.00;102256.59;5030342;28;20090;-69
2022/11/30 03:46:07;;;;;;;36.38;16.67;;;;;;;7.09;100.00;102256.59;5032226;28;20288;-69
2022/11/30 03:48:34;;;;;;;34.47;16.52;;;;;;;7.08;100.00;102256.50;5031214;28;20215;-69
2022/11/30 03:51:00;;;;;;;32.47;15.75;;;;;;;7.06;100.00;102261.59;5032910;28;20068;-69
2022/11/30 03:53:25;;;;;;;35.53;17.33;;;;;;;7.05;100.00;102269.28;5039003;28;20103;-69
2022/11/30 03:55:55;;;;;;;36.63;17.45;;;;;;;7.02;100.00;102267.38;5023528;28;20272;-69
2022/11/30 03:58:22;;;;;;;34.20;16.35;;;;;;;6.99;100.00;102264.63;5035499;28;20302;-70
2022/11/30 04:00:48;;;;;;;33.22;16.65;;;;;;;7.00;100.00;102274.19;5025678;28;20041;-69
2022/11/30 04:03:13;;;;;;;35.05;16.70;;;;;;;7.00;100.00;102274.19;5037540;28;20033;-69
2022/11/30 04:05:38;;;;;;;33.53;15.88;;;;;;;7.00;100.00;102263.81;5038547;28;20021;-69
2022/11/30 04:08:04;;;;;;;38.17;16.73;;;;;;;7.00;100.00;102263.81;5023051;28;20041;-69
2022/11/30 04:10:29;;;;;;;34.85;16.77;;;;;;;7.00;100.00;102260.34;5040738;28;20021;-69
2022/11/30 04:12:54;;;;;;;36.03;16.30;;;;;;;7.00;100.00;102269.00;5039681;28;20298;-69
2022/11/30 04:15:19;;;;;;;35.40;16.40;;;;;;;7.01;100.00;102262.13;5039365;28;20096;-69
2022/11/30 04:17:45;;;;;;;32.75;16.10;;;;;;;7.00;100.00;102266.41;5042220;28;20071;-69
2022/11/30 04:20:10;;;;;;;31.80;15.90;;;;;;;6.99;100.00;102262.03;5030885;28;20029;-69
2022/11/30 04:22:36;;;;;;;33.58;16.33;;;;;;;6.98;100.00;102268.03;5034491;28;20029;-69
2022/11/30 04:25:01;;;;;;;33.00;16.20;;;;;;;6.98;100.00;102275.81;5041664;28;20093;-69
2022/11/30 04:27:30;;;;;;;34.63;16.17;;;;;;;6.95;100.00;102273.00;5041974;28;20309;-69
2022/11/30 04:29:55;;;;;;;33.72;15.32;;;;;;;6.95;100.00;102265.22;5041651;28;20143;-69
2022/11/30 04:32:20;;;;;;;32.63;15.57;;;;;;;6.94;100.00;102266.03;5029343;28;20026;-69
2022/11/30 04:34:45;;;;;;;28.67;14.80;;;;;;;6.93;100.00;102267.72;5039390;28;20056;-69
2022/11/30 04:37:11;;;;;;;27.67;13.63;;;;;;;6.91;100.00;102266.75;5040562;28;20079;-69
2022/11/30 04:39:36;;;;;;;25.95;13.40;;;;;;;6.90;100.00;102274.44;5025423;28;20056;-69
2022/11/30 04:42:01;;;;;;;29.58;14.48;;;;;;;6.87;100.00;102269.94;5032417;28;20132;-69
2022/11/30 04:44:26;;;;;;;28.65;14.25;;;;;;;6.85;100.00;102274.16;5031011;28;20049;-69
2022/11/30 04:46:52;;;;;;;28.02;13.63;;;;;;;6.85;100.00;102273.22;5033794;28;20025;-69
2022/11/30 04:49:17;;;;;;;27.63;13.63;;;;;;;6.83;100.00;102272.25;5029717;28;20022;-69
2022/11/30 04:51:42;;;;;;;26.70;13.52;;;;;;;6.83;100.00;102277.44;5028000;28;20152;-69
2022/11/30 04:54:08;;;;;;;30.20;14.52;;;;;;;6.82;100.00;102279.13;5042198;28;20092;-69
2022/11/30 04:56:33;;;;;;;32.30;14.25;;;;;;;6.81;100.00;102273.84;5039866;28;20041;-64
2022/11/30 04:59:00;;;;;;;27.17;14.20;;;;;;;6.77;100.00;102268.47;5015865;28;20068;-64
2022/11/30 05:01:25;;;;;;;29.15;14.95;;;;;;;6.76;100.00;102269.28;5033078;28;20049;-64
2022/11/30 05:03:50;;;;;;;31.85;15.15;;;;;;;6.74;100.00;102268.28;5035135;28;20044;-64
2022/11/30 05:06:16;;;;;;;27.30;13.45;;;;;;;6.73;100.00;102269.06;5032049;28;20029;-64
2022/11/30 05:08:43;;;;;;;30.67;15.13;;;;;;;6.72;100.00;102280.25;5028172;28;20267;-64
2022/11/30 05:11:08;;;;;;;29.25;14.80;;;;;;;6.70;100.00;102276.66;5025007;28;20052;-65
2022/11/30 05:13:33;;;;;;;28.73;14.90;;;;;;;6.68;100.00;102282.56;5022644;28;20265;-64
2022/11/30 05:15:58;;;;;;;30.38;14.82;;;;;;;6.67;100.00;102284.25;5025111;28;20347;-64
2022/11/30 05:18:24;;;;;;;30.08;14.73;;;;;;;6.66;100.00;102278.97;5027276;28;20079;-64
2022/11/30 05:20:51;;;;;;;31.23;15.27;;;;;;;6.63;100.00;102279.66;5026444;28;20054;-64
2022/11/30 05:23:18;;;;;;;30.63;14.93;;;;;;;6.61;100.00;102291.63;5022931;28;20049;-64
2022/11/30 05:25:44;;;;;;;31.20;15.32;;;;;;;6.58;100.00;102286.28;5024018;28;20108;-64
2022/11/30 05:28:10;;;;;;;30.17;15.02;;;;;;;6.57;100.00;102289.66;5025430;28;20041;-69
2022/11/30 05:30:37;;;;;;;31.20;15.38;;;;;;;6.56;100.00;102296.53;5023070;28;20184;-69
2022/11/30 05:33:03;;;;;;;29.83;15.10;;;;;;;6.54;100.00;102290.34;5020479;28;20246;-69
2022/11/30 05:35:28;;;;;;;29.33;15.20;;;;;;;6.54;100.00;102292.94;5034150;28;20304;-69
2022/11/30 05:37:53;;;;;;;29.63;14.65;;;;;;;6.53;100.00;102293.75;5039165;28;20087;-69
2022/11/30 05:40:18;;;;;;;30.83;14.85;;;;;;;6.53;100.00;102292.84;5028650;28;20197;-69
2022/11/30 05:42:44;;;;;;;27.98;14.02;;;;;;;6.53;100.00;102295.44;5040250;28;20033;-69
2022/11/30 05:45:09;;;;;;;30.95;15.30;;;;;;;6.51;100.00;102300.50;5033945;28;20037;-69
2022/11/30 05:47:35;;;;;;;28.10;14.18;;;;;;;6.49;100.00;102302.13;5037073;28;20037;-69
2022/11/30 05:50:00;;;;;;;33.22;15.13;;;;;;;6.51;100.00;102303.09;5037692;28;20030;-69
2022/11/30 05:52:25;;;;;;;32.88;15.45;;;;;;;6.50;100.00;102308.19;5040235;28;20056;-68
2022/11/30 05:54:51;;;;;;;30.20;14.77;;;;;;;6.48;100.00;102305.50;5041008;28;20041;-69
2022/11/30 05:57:16;;;;;;;24.33;12.38;;;;;;;6.46;100.00;102306.19;5034921;28;20428;-69
2022/11/30 05:59:41;;;;;;;31.60;15.27;;;;;;;6.43;100.00;102312.06;5032499;28;20042;-69
2022/11/30 06:02:06;;;;;;;33.10;15.20;;;;;;;6.40;100.00;102311.88;5028164;28;20026;-69
2022/11/30 06:04:32;;;;;;;31.45;14.77;;;;;;;6.39;100.00;102316.16;5034172;28;20033;-69
2022/11/30 06:06:58;;;;;;;28.58;14.20;;;;;;;6.38;100.00;102316.06;5037087;28;20037;-69
2022/11/30 06:09:23;;;;;;;29.90;14.15;;;;;;;6.37;100.00;102315.19;5028162;28;20063;-69
2022/11/30 06:11:49;;;;;;;29.58;14.13;;;;;;;6.36;100.00;102321.16;5041148;28;20033;-69
2022/11/30 06:14:14;;;;;;;33.45;15.50;;;;;;;6.36;100.00;102315.09;5019256;28;20030;-69
2022/11/30 06:16:39;;;;;;;33.70;14.63;;;;;;;6.36;100.00;102321.16;5041122;28;20024;-69
2022/11/30 06:19:05;;;;;;;28.98;15.23;;;;;;;6.35;100.00;102316.75;5026351;28;20222;-69
2022/11/30 06:21:30;;;;;;;31.98;14.65;;;;;;;6.35;100.00;102313.28;5044127;28;20161;-69
2022/11/30 06:23:55;;;;;;;37.10;18.90;;;;;;;6.34;100.00;102317.53;5035594;28;20206;-69
2022/11/30 06:26:21;;;;;;;36.35;19.17;;;;;;;6.33;100.00;102320.03;5045537;28;20033;-69
2022/11/30 06:28:46;;;;;;;33.28;16.95;;;;;;;6.32;100.00;102316.56;5044613;28;20025;-69
2022/11/30 06:31:12;;;;;;;33.08;17.67;;;;;;;6.33;100.00;102320.94;5032697;28;20049;-69
2022/11/30 06:33:37;;;;;;;35.08;17.98;;;;;;;6.35;100.00;102321.94;5041747;28;20029;-69
2022/11/30 06:36:03;;;;;;;33.22;16.95;;;;;;;6.35;100.00;102323.63;5039056;28;20029;-69
2022/11/30 06:38:28;;;;;;;34.60;16.23;;;;;;;6.36;100.00;102325.44;5042277;28;20272;-69
2022/11/30 06:40:53;;;;;;;34.50;17.45;;;;;;;6.36;100.00;102323.72;5044546;28;20017;-69
2022/11/30 06:43:19;;;;;;;32.38;16.50;;;;;;;6.37;100.00;102322.94;5035159;28;20045;-69
2022/11/30 06:45:45;;;;;;;32.15;15.43;;;;;;;6.38;100.00;102319.53;5037361;28;20204;-69
2022/11/30 06:48:11;;;;;;;29.40;14.98;;;;;;;6.39;100.00;102320.47;5039638;28;20054;-69
2022/11/30 06:50:37;;;;;;;30.70;14.93;;;;;;;6.38;100.00;102329.00;5036424;28;20021;-69
2022/11/30 06:53:03;;;;;;;31.92;15.65;;;;;;;6.37;100.00;102322.94;5016952;28;20308;-69
2022/11/30 06:55:31;;;;;;;31.35;15.43;;;;;;;6.38;100.00;102337.66;5033132;28;20045;-69
2022/11/30 06:58:04;;;;;;;28.40;14.98;;;;;;;6.40;100.00;102338.66;5039992;28;20361;-69
2022/11/30 07:00:30;;;;;;;30.02;15.18;;;;;;;6.40;100.00;102341.25;5039855;28;20256;-69
2022/11/30 07:02:55;;;;;;;31.63;15.18;;;;;;;6.40;100.00;102338.66;5038190;28;20306;-69
2022/11/30 07:05:20;;;;;;;33.28;15.45;;;;;;;6.40;100.00;102343.84;5039338;28;20064;-69
2022/11/30 07:07:45;;;;;;;31.80;15.48;;;;;;;6.36;100.00;102341.84;5041611;28;20048;-69
2022/11/30 07:10:11;;;;;;;31.23;15.05;;;;;;;6.37;100.00;102338.47;5039562;28;20029;-69
2022/11/30 07:12:36;;;;;;;29.20;14.95;;;;;;;6.36;100.00;102336.69;5041139;28;20053;-69
2022/11/30 07:15:02;;;;;;;27.23;13.70;;;;;;;6.35;100.00;102345.22;5041928;28;20084;-69
2022/11/30 07:17:28;;;;;;;30.38;14.80;;;;;;;6.34;100.00;102342.53;5043816;28;20045;-69
2022/11/30 07:19:53;;;;;;;31.08;14.52;;;;;;;6.32;100.00;102350.22;5041684;28;20028;-69
2022/11/30 07:22:18;;;;;;;30.00;14.98;;;;;;;6.32;100.00;102357.97;5037215;28;20034;-69
2022/11/30 07:27:27;;;;;;;29.23;14.30;;;;;;;6.34;100.00;102351.19;5036091;28;20045;-69
2022/11/30 07:29:53;;;;;;;29.15;14.43;;;;;;;6.35;100.00;102368.53;5037062;28;20286;-69
2022/11/30 07:32:18;;;;;;;28.05;14.32;;;;;;;6.34;100.00;102364.13;5031326;28;20041;-69
2022/11/30 07:34:43;;;;;;;28.40;13.95;;;;;;;6.35;100.00;102365.06;5042545;28;20045;-69
2022/11/30 07:37:09;;;;;;;28.48;13.98;;;;;;;6.35;100.00;102367.66;5042789;28;20119;-64
2022/11/30 07:39:34;;;;;;;27.52;14.35;;;;;;;6.34;100.00;102371.03;5039875;28;20021;-64
2022/11/30 07:41:59;;;;;;;26.15;13.23;;;;;;;6.33;100.00;102370.13;5040927;28;20111;-64
2022/11/30 07:44:25;;;;;;;26.20;13.45;;;;;;;6.33;100.00;102383.09;5036592;28;20311;-64
2022/11/30 07:46:51;;;;;;;29.02;14.07;;;;;;;6.34;100.00;102384.84;5036652;28;20064;-64
2022/11/30 07:49:16;;;;;;;30.02;14.05;;;;;;;6.35;100.00;102384.06;5028489;28;20044;-64
2022/11/30 07:51:41;;;;;;;27.67;13.90;;;;;;;6.36;100.00;102382.41;5037504;28;20123;-64
2022/11/30 07:54:07;;;;;;;29.88;14.30;;;;;;;6.37;100.00;102382.50;5036964;28;20021;-64
2022/11/30 07:56:32;;;;;;;28.83;13.52;;;;;;;6.37;100.00;102379.91;5036970;28;20147;-64
2022/11/30 07:59:00;;;;;;;26.02;14.73;;;;;;;6.36;100.00;102388.47;5042116;28;20080;-64
2022/11/30 08:01:28;;;;;;;30.60;15.30;;;;;;;6.37;100.00;102385.06;5040983;28;20031;-64
2022/11/30 08:03:54;;;;;;;29.52;14.55;;;;;;;6.38;100.00;102383.38;5036648;28;20109;-64
2022/11/30 08:06:22;;;;;;;31.52;14.73;;;;;;;6.39;100.00;102388.66;5036789;28;20094;-69
2022/11/30 08:08:49;;;;;;;29.63;14.68;;;;;;;6.41;100.00;102391.34;5028371;28;20084;-69
2022/11/30 08:11:18;;;;;;;30.77;15.27;;;;;;;6.42;100.00;102387.97;5035184;28;20258;-69
2022/11/30 08:13:44;;;;;;;31.02;16.38;;;;;;;6.44;100.00;102399.31;5032925;28;20044;-69
2022/11/30 08:16:15;;;;;;;32.15;15.30;;;;;;;6.46;100.00;102399.41;5042649;28;20322;-69
2022/11/30 08:18:41;;;;;;;34.42;17.17;;;;;;;6.44;100.00;102397.63;5032996;28;20029;-69
2022/11/30 08:21:08;;;;;;;32.67;16.00;;;;;;;6.47;100.00;102401.22;5038361;28;20091;-69
2022/11/30 08:23:42;;;;;;;28.95;15.63;;;;;;;6.47;100.00;102406.38;5036005;28;20212;-69
2022/11/30 08:26:14;;;;;;;30.70;15.65;;;;;;;6.47;100.00;102398.63;5029179;28;20033;-69
2022/11/30 08:28:41;;;;;;;30.63;14.55;;;;;;;6.48;100.00;102408.19;5030655;28;20044;-69
2022/11/30 08:31:09;;;;;;;30.48;15.77;;;;;;;6.46;100.00;102410.69;5035180;28;20022;-69
2022/11/30 08:33:36;;;;;;;30.50;15.73;;;;;;;6.48;100.00;102406.47;5029456;28;20311;-69
2022/11/30 08:36:24;;;;;;;34.67;16.55;;;;;;;6.49;100.00;102412.53;5031441;28;20045;-69
2022/11/30 08:38:49;;;;;;;34.88;17.27;;;;;;;6.50;100.00;102414.34;5029661;28;20044;-69
2022/11/30 08:41:18;;;;;;;34.38;17.10;;;;;;;6.51;100.00;102418.75;5020268;28;20108;-69
2022/11/30 08:43:43;;;;;;;32.80;16.90;;;;;;;6.52;100.00;102420.53;5031825;28;20049;-69
2022/11/30 08:46:12;;;;;;;33.65;17.20;;;;;;;6.53;100.00;102427.50;5028175;28;20030;-69
2022/11/30 08:48:38;;;;;;;33.17;17.52;;;;;;;6.55;100.00;102425.91;5041376;28;20036;-69
2022/11/30 08:51:06;;;;;;;35.50;17.92;;;;;;;6.52;100.00;102425.72;5036444;28;20089;-69
2022/11/30 08:53:32;;;;;;;35.40;17.70;;;;;;;6.51;100.00;102423.91;5037876;28;20032;-69
2022/11/30 08:56:02;;;;;;;30.90;15.70;;;;;;;6.49;100.00;102426.41;5032474;28;20045;-69
2022/11/30 08:58:33;;;;;;;34.90;17.05;;;;;;;6.48;100.00;102422.00;5039105;28;20017;-70
2022/11/30 09:01:12;;;;;;;36.13;17.25;;;;;;;6.49;100.00;102422.91;5039275;28;20028;-69
2022/11/30 09:03:39;;;;;;;37.00;17.77;;;;;;;6.48;100.00;102423.72;5030312;28;20199;-69
2022/11/30 09:06:07;;;;;;;36.67;17.30;;;;;;;6.48;100.00;102429.78;5038857;28;20041;-69
2022/11/30 09:08:34;;;;;;;37.33;18.02;;;;;;;6.50;100.00;102429.88;5040848;28;20168;-70
2022/11/30 09:11:13;;;;;;;39.00;18.70;;;;;;;6.52;100.00;102436.09;5030067;28;20049;-69
2022/11/30 09:13:39;;;;;;;;;;;;;;;6.63;100.00;102434.19;5038621;28;20335;-69
2022/11/30 09:16:05;;;;;;;38.47;18.42;;;;;;;6.59;100.00;102436.56;5043934;28;19963;-69
2022/11/30 09:18:31;;;;;;;41.38;20.15;;;;;;;6.61;100.00;102444.44;5034833;28;20020;-69
2022/11/30 09:21:05;;;;;;;41.35;19.42;;;;;;;6.64;100.00;102447.22;5037381;28;20081;-70
2022/11/30 09:23:30;;;;;;;41.38;20.08;;;;;;;6.66;100.00;102443.03;5042224;28;20048;-70
2022/11/30 09:25:57;;;;;;;39.20;20.60;;;;;;;6.68;100.00;102450.94;5041538;28;20029;-69
2022/11/30 09:28:23;;;;;;;40.90;20.13;;;;;;;6.70;100.00;102447.63;5036437;28;20068;-69
2022/11/30 09:30:48;;;;;;;42.03;20.23;;;;;;;6.73;100.00;102442.63;5033040;28;20200;-69
2022/11/30 09:33:14;;;;;;;45.55;21.58;;;;;;;6.78;100.00;102454.22;5037649;28;20029;-69
2022/11/30 09:35:39;;;;;;;44.85;21.25;;;;;;;6.82;100.00;102457.00;5027968;28;20034;-69
2022/11/30 09:38:04;;;;;;;42.97;20.55;;;;;;;6.84;100.00;102456.31;5034889;28;20032;-69
2022/11/30 09:40:31;;;;;;;44.85;20.77;;;;;;;6.88;100.00;102453.13;5035201;28;20021;-69
2022/11/30 09:43:29;;;;;;;44.25;20.25;;;;;;;6.92;100.00;102449.00;5042708;28;20033;-69
2022/11/30 09:46:02;;;;;;;41.40;19.40;;;;;;;6.94;100.00;102457.81;5037886;28;20276;-69
2022/11/30 09:48:42;;;;;;;43.45;19.88;;;;;;;6.95;100.00;102463.09;5039939;28;20032;-69
2022/11/30 09:51:14;;;;;;;42.47;19.77;;;;;;;6.98;100.00;102454.63;5029609;28;20024;-69
2022/11/30 09:53:43;;;;;;;42.83;20.30;;;;;;;6.98;100.00;102446.84;5038305;28;20049;-69
2022/11/30 09:56:22;;;;;;;;;;;;;;;7.07;100.00;102449.13;5037293;28;20037;-69
2022/11/30 09:58:54;;;;;;;48.10;21.13;;;;;;;7.05;100.00;102446.41;5040558;28;19916;-69
2022/11/30 10:01:20;;;;;;;43.38;20.23;;;;;;;7.06;100.00;102449.91;5017398;28;20228;-69
2022/11/30 10:03:46;;;;;;;44.40;20.55;;;;;;;7.08;100.00;102456.06;5030728;28;20336;-69
2022/11/30 10:06:24;;;;;;;48.97;22.02;;;;;;;7.10;100.00;102455.38;5036001;28;20029;-69
2022/11/30 10:09:05;;;;;;;50.63;22.30;;;;;;;7.13;100.00;102449.50;5036194;28;20277;-69
2022/11/30 10:11:36;;;;;;;47.58;22.38;;;;;;;7.14;100.00;102441.81;5041531;28;20242;-69
2022/11/30 10:14:38;;;;;;;47.30;21.70;;;;;;;7.18;100.00;102442.00;5035356;28;20297;-69
2022/11/30 10:17:34;;;;;;;46.72;21.30;;;;;;;7.23;100.00;102440.63;5029480;28;20068;-69
2022/11/30 10:20:18;;;;;;;47.70;21.25;;;;;;;7.25;100.00;102439.00;5011484;28;20221;-70
2022/11/30 10:22:55;;;;;;;48.05;21.52;;;;;;;7.27;100.00;102448.69;5026758;28;20447;-69
2022/11/30 10:25:53;;;;;;;47.30;21.10;;;;;;;7.29;100.00;102446.19;5028916;28;20636;-71
2022/11/30 10:28:50;;;;;;;46.33;21.15;;;;;;;7.31;100.00;102435.13;5026516;28;20064;-70
2022/11/30 10:31:26;;;;;;;43.80;20.38;;;;;;;7.33;100.00;102432.63;5032852;28;20022;-70
2022/11/30 10:33:55;;;;;;;46.85;20.42;;;;;;;7.35;100.00;102433.59;5038956;28;20042;-70
2022/11/30 10:36:40;;;;;;;45.58;20.25;;;;;;;7.40;100.00;102433.88;5023239;28;20030;-70
2022/11/30 10:39:17;;;;;;;41.20;19.42;;;;;;;7.41;100.00;102435.69;5034051;28;20256;-70
2022/11/30 10:41:47;;;;;;;42.80;19.58;;;;;;;7.43;100.00;102429.78;5041509;28;20037;-70
2022/11/30 10:44:26;;;;;;;46.53;20.02;;;;;;;7.46;100.00;102424.78;5040971;28;20030;-70
2022/11/30 10:47:00;;;;;;;40.15;18.58;;;;;;;7.47;100.00;102426.59;5035366;28;20022;-70
2022/11/30 10:49:29;;;;;;;40.33;19.05;;;;;;;7.49;100.00;102426.69;5040624;28;20023;-70
2022/11/30 10:52:01;;;;;;;39.15;18.55;;;;;;;7.51;100.00;102426.78;5042119;28;20092;-70
2022/11/30 10:54:29;;;;;;;36.95;18.70;;;;;;;7.52;100.00;102418.16;5034037;28;20171;-69
2022/11/30 10:56:57;;;;;;;38.92;18.45;;;;;;;7.52;100.00;102418.16;5041810;28;20033;-70
2022/11/30 10:59:49;;;;;;;36.55;16.88;;;;;;;7.54;100.00;102421.78;5036449;28;20033;-69
2022/11/30 11:02:41;;;;;;;31.10;16.42;;;;;;;7.55;100.00;102416.69;5031228;28;20049;-70
2022/11/30 11:05:30;;;;;;;34.13;16.17;;;;;;;7.55;100.00;102416.69;5044582;28;20024;-70
2022/11/30 11:08:16;;;;;;;30.35;14.52;;;;;;;7.56;100.00;102413.28;5044426;28;20044;-69
2022/11/30 11:10:44;;;;;;;32.80;15.75;;;;;;;7.62;100.00;102415.38;5045206;28;20091;-70
2022/11/30 11:13:42;;;;;;;34.90;16.52;;;;;;;7.68;100.00;102412.25;5045676;28;20048;-69
2022/11/30 11:16:10;;;;;;;34.13;16.88;;;;;;;7.70;100.00;102414.09;5036338;28;20037;-62
2022/11/30 11:18:50;;;;;;;40.78;19.55;;;;;;;7.73;100.00;102414.28;5045322;28;20021;-63